sensor_id;sensor_type;location;lat;lon;timestamp;pressure;altitude;pressure_sealevel;temperature;humidity
2875;BME280;1445;52.600;13.328;2023-08-06T00:00:16;100281.81;;;18.47;100.00
2875;BME280;1445;52.600;13.328;2023-08-06T00:02:41;100276.31;;;18.51;100.00
2875;BME280;1445;52.600;13.328;2023-08-06T00:05:07;100284.22;;;18.49;100.00
2875;BME280;1445;52.600;13.328;2023-08-06T00:07:33;100285.50;;;18.51;100.00
2875;BME280;1445;52.600;13.328;2023-08-06T00:09:58;100288.75;;;18.53;100.00
2875;BME280;1445;52.600;13.328;2023-08-06T00:12:24;100293.41;;;18.49;100.00
2875;BME280;1445;52.600;13.328;2023-08-06T00:14:50;100285.78;;;18.46;100.00
2875;BME280;1445;52.600;13.328;2023-08-06T00:17:16;100289.38;;;18.47;100.00
2875;BME280;1445;52.600;13.328;2023-08-06T00:19:42;100288.13;;;18.44;100.00
2875;BME280;1445;52.600;13.328;2023-08-06T00:22:07;100287.19;;;18.36;100.00
2875;BME280;1445;52.600;13.328;2023-08-06T00:24:34;100285.34;;;18.44;100.00
2875;BME280;1445;52.600;13.328;2023-08-06T00:27:00;100277.69;;;18.41;100.00
2875;BME280;1445;52.600;13.328;2023-08-06T00:29:25;100285.63;;;18.39;100.00
2875;BME280;1445;52.600;13.328;2023-08-06T00:31:51;100286.78;;;18.38;100.00
2875;BME280;1445;52.600;13.328;2023-08-06T00:34:16;100279.16;;;18.35;100.00
2875;BME280;1445;52.600;13.328;2023-08-06T00:36:42;100274.44;;;18.39;100.00
2875;BME280;1445;52.600;13.328;2023-08-06T00:39:07;100270.50;;;18.40;100.00
2875;BME280;1445;52.600;13.328;2023-08-06T00:41:33;100263.47;;;18.46;100.00
2875;BME280;1445;52.600;13.328;2023-08-06T00:43:58;100264.13;;;18.40;100.00
2875;BME280;1445;52.600;13.328;2023-08-06T00:46:24;100266.91;;;18.40;100.00
2875;BME280;1445;52.600;13.328;2023-08-06T00:48:50;100256.63;;;18.44;100.00
2875;BME280;1445;52.600;13.328;2023-08-06T00:51:16;100261.03;;;18.45;100.00
2875;BME280;1445;52.600;13.328;2023-08-06T00:53:42;100261.69;;;18.38;100.00
2875;BME280;1445;52.600;13.328;2023-08-06T00:56:08;100250.91;;;18.36;100.00
2875;BME280;1445;52.600;13.328;2023-08-06T00:58:35;100251.25;;;18.35;100.00
2875;BME280;1445;52.600;13.328;2023-08-06T01:01:02;100245.16;;;18.29;100.00
2875;BME280;1445;52.600;13.328;2023-08-06T01:03:27;100259.84;;;18.26;100.00
2875;BME280;1445;52.600;13.328;2023-08-06T01:05:53;100255.94;;;18.31;100.00
2875;BME280;1445;52.600;13.328;2023-08-06T01:08:58;100246.25;;;18.25;100.00
2875;BME280;1445;52.600;13.328;2023-08-06T01:11:43;100252.34;;;18.30;100.00
2875;BME280;1445;52.600;13.328;2023-08-06T01:17:21;100253.88;;;18.28;100.00
2875;BME280;1445;52.600;13.328;2023-08-06T01:19:49;100249.56;;;18.30;100.00
2875;BME280;1445;52.600;13.328;2023-08-06T01:22:14;100249.88;;;18.25;100.00
2875;BME280;1445;52.600;13.328;2023-08-06T01:24:41;100243.44;;;18.25;100.00
2875;BME280;1445;52.600;13.328;2023-08-06T01:27:19;100241.34;;;18.18;100.00
2875;BME280;1445;52.600;13.328;2023-08-06T01:30:10;100244.47;;;18.17;100.00
2875;BME280;1445;52.600;13.328;2023-08-06T01:32:39;100240.44;;;18.14;100.00
2875;BME280;1445;52.600;13.328;2023-08-06T01:35:10;100238.56;;;18.18;100.00
2875;BME280;1445;52.600;13.328;2023-08-06T01:37:37;100241.41;;;18.22;100.00
2875;BME280;1445;52.600;13.328;2023-08-06T01:40:10;100233.06;;;18.22;100.00
2875;BME280;1445;52.600;13.328;2023-08-06T01:42:37;100223.13;;;18.24;100.00
2875;BME280;1445;52.600;13.328;2023-08-06T01:45:03;100217.47;;;18.21;100.00
2875;BME280;1445;52.600;13.328;2023-08-06T01:47:29;100221.44;;;18.20;100.00
2875;BME280;1445;52.600;13.328;2023-08-06T01:49:54;100214.59;;;18.17;100.00
2875;BME280;1445;52.600;13.328;2023-08-06T01:52:20;100208.94;;;18.13;100.00
2875;BME280;1445;52.600;13.328;2023-08-06T01:54:45;100207.47;;;18.00;100.00
2875;BME280;1445;52.600;13.328;2023-08-06T01:57:11;100208.00;;;18.06;100.00
2875;BME280;1445;52.600;13.328;2023-08-06T01:59:36;100205.28;;;18.09;100.00
2875;BME280;1445;52.600;13.328;2023-08-06T02:02:02;100202.03;;;18.07;100.00
2875;BME280;1445;52.600;13.328;2023-08-06T02:04:28;100206.88;;;18.10;100.00
2875;BME280;1445;52.600;13.328;2023-08-06T02:06:53;100207.34;;;18.12;100.00
2875;BME280;1445;52.600;13.328;2023-08-06T02:09:19;100208.78;;;18.06;100.00
2875;BME280;1445;52.600;13.328;2023-08-06T02:11:44;100213.56;;;18.06;100.00
2875;BME280;1445;52.600;13.328;2023-08-06T02:14:10;100208.38;;;18.04;100.00
2875;BME280;1445;52.600;13.328;2023-08-06T02:16:36;100200.72;;;18.01;100.00
2875;BME280;1445;52.600;13.328;2023-08-06T02:19:01;100205.03;;;17.99;100.00
2875;BME280;1445;52.600;13.328;2023-08-06T02:21:27;100198.59;;;17.95;100.00
2875;BME280;1445;52.600;13.328;2023-08-06T02:23:52;100219.22;;;17.90;100.00
2875;BME280;1445;52.600;13.328;2023-08-06T02:26:18;100207.22;;;17.89;100.00
2875;BME280;1445;52.600;13.328;2023-08-06T02:28:43;100210.38;;;17.88;100.00
2875;BME280;1445;52.600;13.328;2023-08-06T02:31:09;100213.19;;;17.88;100.00
2875;BME280;1445;52.600;13.328;2023-08-06T02:33:34;100210.72;;;17.86;100.00
2875;BME280;1445;52.600;13.328;2023-08-06T02:36:01;100198.78;;;17.86;100.00
2875;BME280;1445;52.600;13.328;2023-08-06T02:38:27;100203.84;;;17.80;100.00
2875;BME280;1445;52.600;13.328;2023-08-06T02:40:52;100206.25;;;17.82;100.00
2875;BME280;1445;52.600;13.328;2023-08-06T02:43:18;100212.13;;;17.77;100.00
2875;BME280;1445;52.600;13.328;2023-08-06T02:45:43;100205.47;;;17.81;100.00
2875;BME280;1445;52.600;13.328;2023-08-06T02:48:09;100201.88;;;17.81;100.00
2875;BME280;1445;52.600;13.328;2023-08-06T02:50:39;100200.34;;;17.83;100.00
2875;BME280;1445;52.600;13.328;2023-08-06T02:53:06;100196.28;;;17.81;100.00
2875;BME280;1445;52.600;13.328;2023-08-06T02:55:32;100195.72;;;17.75;100.00
2875;BME280;1445;52.600;13.328;2023-08-06T02:57:59;100201.66;;;17.74;100.00
2875;BME280;1445;52.600;13.328;2023-08-06T03:00:25;100207.59;;;17.72;100.00
2875;BME280;1445;52.600;13.328;2023-08-06T03:02:51;100198.00;;;17.70;100.00
2875;BME280;1445;52.600;13.328;2023-08-06T03:05:16;100198.44;;;17.72;100.00
2875;BME280;1445;52.600;13.328;2023-08-06T03:07:42;100203.41;;;17.62;100.00
2875;BME280;1445;52.600;13.328;2023-08-06T03:10:07;100206.19;;;17.62;100.00
2875;BME280;1445;52.600;13.328;2023-08-06T03:12:33;100209.72;;;17.59;100.00
2875;BME280;1445;52.600;13.328;2023-08-06T03:14:59;100212.50;;;17.59;100.00
2875;BME280;1445;52.600;13.328;2023-08-06T03:17:24;100203.03;;;17.64;100.00
2875;BME280;1445;52.600;13.328;2023-08-06T03:19:50;100208.81;;;17.55;100.00
2875;BME280;1445;52.600;13.328;2023-08-06T03:22:15;100205.56;;;17.53;100.00
2875;BME280;1445;52.600;13.328;2023-08-06T03:24:41;100207.09;;;17.51;100.00
2875;BME280;1445;52.600;13.328;2023-08-06T03:27:06;100208.72;;;17.52;100.00
2875;BME280;1445;52.600;13.328;2023-08-06T03:29:32;100207.19;;;17.54;100.00
2875;BME280;1445;52.600;13.328;2023-08-06T03:31:57;100210.25;;;17.49;100.00
2875;BME280;1445;52.600;13.328;2023-08-06T03:34:23;100208.81;;;17.55;100.00
2875;BME280;1445;52.600;13.328;2023-08-06T03:36:49;100203.97;;;17.52;100.00
2875;BME280;1445;52.600;13.328;2023-08-06T03:39:14;100199.28;;;17.56;100.00
2875;BME280;1445;52.600;13.328;2023-08-06T03:41:40;100198.31;;;17.49;100.00
2875;BME280;1445;52.600;13.328;2023-08-06T03:44:05;100195.44;;;17.45;100.00
2875;BME280;1445;52.600;13.328;2023-08-06T03:46:31;100195.88;;;17.47;100.00
2875;BME280;1445;52.600;13.328;2023-08-06T03:49:00;100194.25;;;17.46;100.00
2875;BME280;1445;52.600;13.328;2023-08-06T03:51:26;100196.59;;;17.44;100.00
2875;BME280;1445;52.600;13.328;2023-08-06T03:53:51;100184.53;;;17.40;100.00
2875;BME280;1445;52.600;13.328;2023-08-06T03:56:17;100190.13;;;17.40;100.00
2875;BME280;1445;52.600;13.328;2023-08-06T03:58:42;100184.13;;;17.38;100.00
2875;BME280;1445;52.600;13.328;2023-08-06T04:01:09;100180.97;;;17.39;100.00
2875;BME280;1445;52.600;13.328;2023-08-06T04:03:34;100180.69;;;17.29;100.00
2875;BME280;1445;52.600;13.328;2023-08-06T04:06:02;100182.69;;;17.28;100.00
2875;BME280;1445;52.600;13.328;2023-08-06T04:08:28;100174.41;;;17.32;100.00
2875;BME280;1445;52.600;13.328;2023-08-06T04:10:54;100162.28;;;17.24;100.00
2875;BME280;1445;52.600;13.328;2023-08-06T04:13:19;100166.97;;;17.20;100.00
2875;BME280;1445;52.600;13.328;2023-08-06T04:15:45;100164.09;;;17.16;100.00
2875;BME280;1445;52.600;13.328;2023-08-06T04:18:11;100172.88;;;17.18;100.00
2875;BME280;1445;52.600;13.328;2023-08-06T04:20:44;100166.13;;;17.20;100.00
2875;BME280;1445;52.600;13.328;2023-08-06T04:23:10;100165.34;;;17.19;100.00
2875;BME280;1445;52.600;13.328;2023-08-06T04:25:36;100163.00;;;17.21;100.00
2875;BME280;1445;52.600;13.328;2023-08-06T04:28:01;100160.22;;;17.21;100.00
2875;BME280;1445;52.600;13.328;2023-08-06T04:30:27;100153.38;;;17.18;100.00
2875;BME280;1445;52.600;13.328;2023-08-06T04:32:52;100153.75;;;17.17;100.00
2875;BME280;1445;52.600;13.328;2023-08-06T04:35:18;100155.28;;;17.14;100.00
2875;BME280;1445;52.600;13.328;2023-08-06T04:37:43;100155.28;;;17.14;100.00
2875;BME280;1445;52.600;13.328;2023-08-06T04:40:09;100148.28;;;17.21;100.00
2875;BME280;1445;52.600;13.328;2023-08-06T04:42:35;100146.63;;;17.20;100.00
2875;BME280;1445;52.600;13.328;2023-08-06T04:45:01;100145.13;;;17.22;100.00
2875;BME280;1445;52.600;13.328;2023-08-06T04:47:27;100136.03;;;17.25;100.00
2875;BME280;1445;52.600;13.328;2023-08-06T04:49:53;100132.53;;;17.28;100.00
2875;BME280;1445;52.600;13.328;2023-08-06T04:52:18;100131.09;;;17.34;100.00
2875;BME280;1445;52.600;13.328;2023-08-06T04:54:44;100123.16;;;17.36;100.00
2875;BME280;1445;52.600;13.328;2023-08-06T04:57:10;100127.22;;;17.23;100.00
2875;BME280;1445;52.600;13.328;2023-08-06T04:59:35;100122.84;;;17.22;100.00
2875;BME280;1445;52.600;13.328;2023-08-06T05:02:01;100119.88;;;17.31;100.00
2875;BME280;1445;52.600;13.328;2023-08-06T05:04:27;100126.97;;;17.28;100.00
2875;BME280;1445;52.600;13.328;2023-08-06T05:06:52;100120.59;;;17.28;100.00
2875;BME280;1445;52.600;13.328;2023-08-06T05:09:18;100117.44;;;17.29;100.00
2875;BME280;1445;52.600;13.328;2023-08-06T05:11:43;100106.81;;;17.35;100.00
2875;BME280;1445;52.600;13.328;2023-08-06T05:14:09;100112.09;;;17.40;100.00
2875;BME280;1445;52.600;13.328;2023-08-06T05:16:34;100107.72;;;17.39;100.00
2875;BME280;1445;52.600;13.328;2023-08-06T05:19:00;100099.44;;;17.42;100.00
2875;BME280;1445;52.600;13.328;2023-08-06T05:21:26;100098.19;;;17.40;100.00
2875;BME280;1445;52.600;13.328;2023-08-06T05:23:51;100089.97;;;17.47;100.00
2875;BME280;1445;52.600;13.328;2023-08-06T05:26:17;100082.78;;;17.46;100.00
2875;BME280;1445;52.600;13.328;2023-08-06T05:28:44;100075.13;;;17.59;100.00
2875;BME280;1445;52.600;13.328;2023-08-06T05:31:11;100074.41;;;17.62;100.00
2875;BME280;1445;52.600;13.328;2023-08-06T05:33:37;100059.84;;;17.72;100.00
2875;BME280;1445;52.600;13.328;2023-08-06T05:36:02;100053.03;;;17.70;100.00
2875;BME280;1445;52.600;13.328;2023-08-06T05:38:29;100062.56;;;17.69;100.00
2875;BME280;1445;52.600;13.328;2023-08-06T05:40:55;100062.75;;;17.76;100.00
2875;BME280;1445;52.600;13.328;2023-08-06T05:43:22;100052.75;;;17.75;100.00
2875;BME280;1445;52.600;13.328;2023-08-06T05:45:49;100049.78;;;17.83;100.00
2875;BME280;1445;52.600;13.328;2023-08-06T05:48:15;100046.31;;;17.90;100.00
2875;BME280;1445;52.600;13.328;2023-08-06T05:50:41;100056.44;;;17.98;100.00
2875;BME280;1445;52.600;13.328;2023-08-06T05:53:07;100048.41;;;17.97;100.00
2875;BME280;1445;52.600;13.328;2023-08-06T05:55:33;100051.53;;;17.92;100.00
2875;BME280;1445;52.600;13.328;2023-08-06T05:57:58;100050.66;;;17.87;100.00
2875;BME280;1445;52.600;13.328;2023-08-06T06:00:24;100057.16;;;17.95;100.00
2875;BME280;1445;52.600;13.328;2023-08-06T06:02:50;100051.91;;;17.90;100.00
2875;BME280;1445;52.600;13.328;2023-08-06T06:05:15;100060.69;;;17.92;100.00
2875;BME280;1445;52.600;13.328;2023-08-06T06:07:41;100050.53;;;18.03;100.00
2875;BME280;1445;52.600;13.328;2023-08-06T06:10:07;100051.78;;;18.06;100.00
2875;BME280;1445;52.600;13.328;2023-08-06T06:12:32;100047.88;;;18.10;100.00
2875;BME280;1445;52.600;13.328;2023-08-06T06:14:58;100053.19;;;18.16;100.00
2875;BME280;1445;52.600;13.328;2023-08-06T06:17:26;100042.88;;;18.20;100.00
2875;BME280;1445;52.600;13.328;2023-08-06T06:19:52;100035.84;;;18.26;100.00
2875;BME280;1445;52.600;13.328;2023-08-06T06:22:17;100032.44;;;18.36;100.00
2875;BME280;1445;52.600;13.328;2023-08-06T06:24:43;100027.41;;;18.45;100.00
2875;BME280;1445;52.600;13.328;2023-08-06T06:27:08;100018.16;;;18.41;100.00
2875;BME280;1445;52.600;13.328;2023-08-06T06:29:34;100015.56;;;18.52;100.00
2875;BME280;1445;52.600;13.328;2023-08-06T06:32:00;100017.22;;;18.56;100.00
2875;BME280;1445;52.600;13.328;2023-08-06T06:34:25;100024.06;;;18.36;100.00
2875;BME280;1445;52.600;13.328;2023-08-06T06:36:51;100023.75;;;18.41;100.00
2875;BME280;1445;52.600;13.328;2023-08-06T06:39:17;100022.69;;;18.49;100.00
2875;BME280;1445;52.600;13.328;2023-08-06T06:41:43;100024.31;;;18.50;100.00
2875;BME280;1445;52.600;13.328;2023-08-06T06:44:09;100020.38;;;18.55;100.00
2875;BME280;1445;52.600;13.328;2023-08-06T06:46:35;100012.19;;;18.66;100.00
2875;BME280;1445;52.600;13.328;2023-08-06T06:49:00;100012.56;;;18.64;100.00
2875;BME280;1445;52.600;13.328;2023-08-06T06:51:26;100008.84;;;18.56;100.00
2875;BME280;1445;52.600;13.328;2023-08-06T06:53:51;100007.41;;;18.66;100.00
2875;BME280;1445;52.600;13.328;2023-08-06T06:56:17;100011.00;;;18.67;100.00
2875;BME280;1445;52.600;13.328;2023-08-06T06:58:42;100003.75;;;18.62;100.00
2875;BME280;1445;52.600;13.328;2023-08-06T07:01:09;100008.09;;;18.59;100.00
2875;BME280;1445;52.600;13.328;2023-08-06T07:03:36;100013.75;;;18.40;100.00
2875;BME280;1445;52.600;13.328;2023-08-06T07:06:01;100021.75;;;18.42;100.00
2875;BME280;1445;52.600;13.328;2023-08-06T07:08:27;100025.91;;;18.51;100.00
2875;BME280;1445;52.600;13.328;2023-08-06T07:11:03;100020.50;;;18.62;100.00
2875;BME280;1445;52.600;13.328;2023-08-06T07:13:29;100012.41;;;18.53;100.00
2875;BME280;1445;52.600;13.328;2023-08-06T07:15:55;100017.72;;;18.62;100.00
2875;BME280;1445;52.600;13.328;2023-08-06T07:18:23;100010.94;;;18.63;100.00
2875;BME280;1445;52.600;13.328;2023-08-06T07:20:54;100016.72;;;18.51;100.00
2875;BME280;1445;52.600;13.328;2023-08-06T07:23:24;100025.78;;;18.44;100.00
2875;BME280;1445;52.600;13.328;2023-08-06T07:25:50;100032.31;;;18.29;100.00
2875;BME280;1445;52.600;13.328;2023-08-06T07:28:16;100033.53;;;18.08;100.00
2875;BME280;1445;52.600;13.328;2023-08-06T07:30:42;100038.53;;;17.99;100.00
2875;BME280;1445;52.600;13.328;2023-08-06T07:33:08;100043.59;;;17.94;100.00
2875;BME280;1445;52.600;13.328;2023-08-06T07:35:35;100048.53;;;17.81;100.00
2875;BME280;1445;52.600;13.328;2023-08-06T07:38:01;100047.78;;;17.84;100.00
2875;BME280;1445;52.600;13.328;2023-08-06T07:40:27;100049.59;;;17.96;100.00
2875;BME280;1445;52.600;13.328;2023-08-06T07:42:53;100048.94;;;17.83;100.00
2875;BME280;1445;52.600;13.328;2023-08-06T07:45:18;100049.38;;;17.65;100.00
2875;BME280;1445;52.600;13.328;2023-08-06T07:47:44;100065.72;;;17.67;100.00
2875;BME280;1445;52.600;13.328;2023-08-06T07:50:10;100060.97;;;17.68;100.00
2875;BME280;1445;52.600;13.328;2023-08-06T07:52:35;100053.69;;;17.63;100.00
2875;BME280;1445;52.600;13.328;2023-08-06T07:55:01;100060.09;;;17.83;100.00
2875;BME280;1445;52.600;13.328;2023-08-06T07:57:33;100060.16;;;18.06;100.00
2875;BME280;1445;52.600;13.328;2023-08-06T08:00:00;100061.22;;;18.21;100.00
2875;BME280;1445;52.600;13.328;2023-08-06T08:02:26;100062.88;;;18.22;100.00
2875;BME280;1445;52.600;13.328;2023-08-06T08:04:51;100052.31;;;18.34;100.00
2875;BME280;1445;52.600;13.328;2023-08-06T08:07:18;100049.66;;;18.42;100.00
2875;BME280;1445;52.600;13.328;2023-08-06T08:09:44;100032.56;;;18.43;100.00
2875;BME280;1445;52.600;13.328;2023-08-06T08:12:09;100039.41;;;18.49;100.00
2875;BME280;1445;52.600;13.328;2023-08-06T08:14:35;100034.03;;;18.37;100.00
2875;BME280;1445;52.600;13.328;2023-08-06T08:17:05;100031.66;;;18.16;100.00
2875;BME280;1445;52.600;13.328;2023-08-06T08:19:31;100038.06;;;18.17;100.00
2875;BME280;1445;52.600;13.328;2023-08-06T08:21:57;100033.22;;;18.13;100.00
2875;BME280;1445;52.600;13.328;2023-08-06T08:24:23;100030.06;;;18.15;100.00
2875;BME280;1445;52.600;13.328;2023-08-06T08:26:52;100021.75;;;18.19;100.00
2875;BME280;1445;52.600;13.328;2023-08-06T08:29:22;100010.41;;;18.31;100.00
2875;BME280;1445;52.600;13.328;2023-08-06T08:31:48;100010.72;;;18.49;100.00
2875;BME280;1445;52.600;13.328;2023-08-06T08:34:17;100005.19;;;18.52;100.00
2875;BME280;1445;52.600;13.328;2023-08-06T08:36:43;99997.44;;;18.65;100.00
2875;BME280;1445;52.600;13.328;2023-08-06T08:39:09;99996.50;;;18.57;100.00
2875;BME280;1445;52.600;13.328;2023-08-06T08:41:36;100001.66;;;18.55;100.00
2875;BME280;1445;52.600;13.328;2023-08-06T08:44:02;100004.09;;;18.34;100.00
2875;BME280;1445;52.600;13.328;2023-08-06T08:46:30;100003.06;;;18.46;100.00
2875;BME280;1445;52.600;13.328;2023-08-06T08:48:59;99996.50;;;18.57;100.00
2875;BME280;1445;52.600;13.328;2023-08-06T08:51:25;99987.22;;;18.73;100.00
2875;BME280;1445;52.600;13.328;2023-08-06T08:53:53;99988.19;;;18.61;100.00
2875;BME280;1445;52.600;13.328;2023-08-06T08:56:21;99979.72;;;18.54;100.00
2875;BME280;1445;52.600;13.328;2023-08-06T08:58:47;99973.75;;;18.55;100.00
2875;BME280;1445;52.600;13.328;2023-08-06T09:01:15;99980.56;;;18.58;100.00
2875;BME280;1445;52.600;13.328;2023-08-06T09:03:41;99985.53;;;18.45;100.00
2875;BME280;1445;52.600;13.328;2023-08-06T09:06:07;99978.47;;;18.51;100.00
2875;BME280;1445;52.600;13.328;2023-08-06T09:08:36;99982.63;;;18.38;100.00
2875;BME280;1445;52.600;13.328;2023-08-06T09:11:04;99974.63;;;18.36;100.00
2875;BME280;1445;52.600;13.328;2023-08-06T09:13:30;99973.31;;;18.53;100.00
2875;BME280;1445;52.600;13.328;2023-08-06T09:15:56;99977.84;;;18.62;100.00
2875;BME280;1445;52.600;13.328;2023-08-06T09:18:29;99970.16;;;18.55;100.00
2875;BME280;1445;52.600;13.328;2023-08-06T09:20:55;99961.94;;;18.16;100.00
2875;BME280;1445;52.600;13.328;2023-08-06T09:23:27;99967.25;;;18.25;100.00
2875;BME280;1445;52.600;13.328;2023-08-06T09:25:54;99968.81;;;17.99;100.00
2875;BME280;1445;52.600;13.328;2023-08-06T09:28:20;99977.88;;;18.16;100.00
2875;BME280;1445;52.600;13.328;2023-08-06T09:30:47;99976.38;;;18.22;100.00
2875;BME280;1445;52.600;13.328;2023-08-06T09:33:17;99970.66;;;18.38;100.00
2875;BME280;1445;52.600;13.328;2023-08-06T09:35:46;99972.19;;;18.58;100.00
2875;BME280;1445;52.600;13.328;2023-08-06T09:38:12;99959.06;;;18.35;100.00
2875;BME280;1445;52.600;13.328;2023-08-06T09:40:39;99957.44;;;18.34;100.00
2875;BME280;1445;52.600;13.328;2023-08-06T09:43:05;99953.00;;;18.30;100.00
2875;BME280;1445;52.600;13.328;2023-08-06T09:45:35;99959.44;;;18.34;100.00
2875;BME280;1445;52.600;13.328;2023-08-06T09:48:05;99957.44;;;18.57;100.00
2875;BME280;1445;52.600;13.328;2023-08-06T09:50:33;99946.50;;;18.72;100.00
2875;BME280;1445;52.600;13.328;2023-08-06T09:53:00;99951.91;;;18.88;100.00
2875;BME280;1445;52.600;13.328;2023-08-06T09:55:26;99947.31;;;18.49;100.00
2875;BME280;1445;52.600;13.328;2023-08-06T09:57:52;99946.41;;;18.42;100.00
2875;BME280;1445;52.600;13.328;2023-08-06T10:00:18;99952.66;;;18.58;100.00
2875;BME280;1445;52.600;13.328;2023-08-06T10:02:45;99948.94;;;18.50;100.00
2875;BME280;1445;52.600;13.328;2023-08-06T10:05:11;99950.16;;;18.53;100.00
2875;BME280;1445;52.600;13.328;2023-08-06T10:07:37;99944.06;;;18.44;100.00
2875;BME280;1445;52.600;13.328;2023-08-06T10:10:05;99938.53;;;18.24;100.00
2875;BME280;1445;52.600;13.328;2023-08-06T10:12:39;99935.75;;;18.24;100.00
2875;BME280;1445;52.600;13.328;2023-08-06T10:15:09;99925.84;;;18.27;100.00
2875;BME280;1445;52.600;13.328;2023-08-06T10:17:36;99922.78;;;18.35;100.00
2875;BME280;1445;52.600;13.328;2023-08-06T10:20:07;99926.94;;;18.45;100.00
2875;BME280;1445;52.600;13.328;2023-08-06T10:22:33;99915.56;;;18.57;100.00
2875;BME280;1445;52.600;13.328;2023-08-06T10:25:00;99899.94;;;18.53;100.00
2875;BME280;1445;52.600;13.328;2023-08-06T10:32:53;99839.38;;;18.04;100.00
2875;BME280;1445;52.600;13.328;2023-08-06T10:38:08;99832.66;;;18.05;100.00
2875;BME280;1445;52.600;13.328;2023-08-06T10:40:39;99822.88;;;17.92;100.00
2875;BME280;1445;52.600;13.328;2023-08-06T10:43:05;99822.81;;;18.15;100.00
2875;BME280;1445;52.600;13.328;2023-08-06T10:45:36;99823.91;;;18.33;100.00
2875;BME280;1445;52.600;13.328;2023-08-06T10:48:03;99818.19;;;18.52;100.00
2875;BME280;1445;52.600;13.328;2023-08-06T10:50:29;99823.16;;;18.66;100.00
2875;BME280;1445;52.600;13.328;2023-08-06T10:52:57;99816.63;;;18.81;100.00
2875;BME280;1445;52.600;13.328;2023-08-06T10:55:28;99808.09;;;19.04;100.00
2875;BME280;1445;52.600;13.328;2023-08-06T10:57:55;99800.94;;;18.73;100.00
2875;BME280;1445;52.600;13.328;2023-08-06T11:00:24;99789.50;;;18.82;100.00
2875;BME280;1445;52.600;13.328;2023-08-06T11:02:51;99800.22;;;18.80;100.00
2875;BME280;1445;52.600;13.328;2023-08-06T11:05:17;99797.66;;;18.68;100.00
2875;BME280;1445;52.600;13.328;2023-08-06T11:07:43;99789.38;;;18.71;100.00
2875;BME280;1445;52.600;13.328;2023-08-06T11:10:11;99793.22;;;18.63;100.00
2875;BME280;1445;52.600;13.328;2023-08-06T11:12:38;99810.28;;;18.88;100.00
2875;BME280;1445;52.600;13.328;2023-08-06T11:15:04;99800.16;;;19.06;100.00
2875;BME280;1445;52.600;13.328;2023-08-06T11:17:32;99813.84;;;19.19;100.00
2875;BME280;1445;52.600;13.328;2023-08-06T11:20:07;99808.50;;;19.44;100.00
2875;BME280;1445;52.600;13.328;2023-08-06T11:22:32;99802.00;;;19.70;100.00
2875;BME280;1445;52.600;13.328;2023-08-06T11:24:58;99780.13;;;19.86;100.00
2875;BME280;1445;52.600;13.328;2023-08-06T11:27:26;99762.59;;;19.89;100.00
2875;BME280;1445;52.600;13.328;2023-08-06T11:29:53;99773.72;;;19.82;100.00
2875;BME280;1445;52.600;13.328;2023-08-06T11:32:19;99777.19;;;19.65;100.00
2875;BME280;1445;52.600;13.328;2023-08-06T11:34:44;99773.84;;;19.11;100.00
2875;BME280;1445;52.600;13.328;2023-08-06T11:37:10;99780.00;;;18.90;100.00
2875;BME280;1445;52.600;13.328;2023-08-06T11:39:38;99797.41;;;18.76;100.00
2875;BME280;1445;52.600;13.328;2023-08-06T11:42:07;99818.72;;;18.62;100.00
2875;BME280;1445;52.600;13.328;2023-08-06T11:44:35;99830.00;;;18.42;100.00
2875;BME280;1445;52.600;13.328;2023-08-06T11:47:03;99844.78;;;18.16;100.00
2875;BME280;1445;52.600;13.328;2023-08-06T11:49:49;99855.47;;;18.37;100.00
2875;BME280;1445;52.600;13.328;2023-08-06T11:52:21;99861.63;;;18.50;100.00
2875;BME280;1445;52.600;13.328;2023-08-06T11:55:09;99864.09;;;18.55;100.00
2875;BME280;1445;52.600;13.328;2023-08-06T11:57:44;99864.69;;;18.41;100.00
2875;BME280;1445;52.600;13.328;2023-08-06T12:00:12;99865.47;;;18.42;100.00
2875;BME280;1445;52.600;13.328;2023-08-06T12:02:43;99874.25;;;18.40;100.00
2875;BME280;1445;52.600;13.328;2023-08-06T12:05:13;99878.09;;;18.58;100.00
2875;BME280;1445;52.600;13.328;2023-08-06T12:07:42;99868.09;;;18.84;100.00
2875;BME280;1445;52.600;13.328;2023-08-06T12:10:09;99862.00;;;18.75;100.00
2875;BME280;1445;52.600;13.328;2023-08-06T12:12:35;99864.50;;;18.83;100.00
2875;BME280;1445;52.600;13.328;2023-08-06T12:15:03;99861.50;;;18.69;100.00
2875;BME280;1445;52.600;13.328;2023-08-06T12:17:28;99855.97;;;18.73;100.00
2875;BME280;1445;52.600;13.328;2023-08-06T12:19:54;99848.41;;;18.73;100.00
2875;BME280;1445;52.600;13.328;2023-08-06T12:22:20;99850.09;;;18.78;100.00
2875;BME280;1445;52.600;13.328;2023-08-06T12:24:46;99852.28;;;18.95;100.00
2875;BME280;1445;52.600;13.328;2023-08-06T12:27:13;99842.16;;;18.53;100.00
2875;BME280;1445;52.600;13.328;2023-08-06T12:29:46;99847.47;;;18.66;100.00
2875;BME280;1445;52.600;13.328;2023-08-06T12:32:12;99842.63;;;18.89;100.00
2875;BME280;1445;52.600;13.328;2023-08-06T12:34:39;99833.50;;;18.92;100.00
2875;BME280;1445;52.600;13.328;2023-08-06T12:37:05;99835.47;;;18.92;100.00
2875;BME280;1445;52.600;13.328;2023-08-06T12:39:32;99841.16;;;18.69;100.00
2875;BME280;1445;52.600;13.328;2023-08-06T12:41:59;99826.00;;;18.70;100.00
2875;BME280;1445;52.600;13.328;2023-08-06T12:44:24;99825.81;;;18.55;100.00
2875;BME280;1445;52.600;13.328;2023-08-06T12:46:51;99825.75;;;18.52;100.00
2875;BME280;1445;52.600;13.328;2023-08-06T12:49:17;99822.91;;;18.48;100.00
2875;BME280;1445;52.600;13.328;2023-08-06T12:51:43;99823.00;;;18.55;100.00
2875;BME280;1445;52.600;13.328;2023-08-06T12:54:09;99820.97;;;18.52;100.00
2875;BME280;1445;52.600;13.328;2023-08-06T12:56:34;99821.41;;;18.54;100.00
2875;BME280;1445;52.600;13.328;2023-08-06T12:59:00;99829.69;;;18.47;100.00
2875;BME280;1445;52.600;13.328;2023-08-06T13:01:26;99826.25;;;18.57;100.00